Latest Weather Observations for Taree Airport

IDN60801

Issued at 11:32 am EST Wednesday 4 May 2016 (issued every 30 minutes, with the page automatically refreshed every 10 minutes)

About weather observations | Map of weather stations | Latest weather observations for NSW | Other Formats
Station Details ID: 060141 Name: TAREE AIRPORT AWS Lat: -31.89 Lon: 152.51 Height: 8.0 m
Data from the previous 72 hours. | See also: Recent months at Taree Airport
Date/Time
EST
Temp
°C
App
Temp
°C
Dew
Point
Rel
Hum
%
Delta-T
°C
Wind Press
QNH
hPa
Press
MSL
hPa
Rain
since 9 am
mm
Dir
 
Spd
km/h
Gust
km/h
Spd
kts
Gust
kts
04/11:30am 25.0 21.1 7.2 32 9.3 WSW 17 26 9 14 1015.5 1015.5 0.0
04/11:00am 24.4 20.9 8.8 37 8.4 W 17 22 9 12 1015.7 1015.7 0.0
04/10:30am 23.4 19.8 8.3 38 8.0 WSW 17 26 9 14 1015.9 1015.9 0.0
04/10:00am 22.5 20.3 10.9 48 6.4 WSW 13 19 7 10 1016.1 1016.1 0.0
04/09:30am 21.0 19.0 11.6 55 5.2 WSW 13 17 7 9 1016.1 1016.1 0.0
04/09:00am 19.7 17.6 11.2 58 4.6 W 13 17 7 9 1016.1 1016.1 0.0
04/08:30am 18.1 17.0 11.9 67 3.4 WSW 9 13 5 7 1016.1 1016.1 0.0
04/08:00am 16.3 14.8 11.9 75 2.4 WSW 11 13 6 7 1015.7 1015.7 0.0
04/07:30am 15.3 16.0 12.2 82 1.7 CALM 0 0 0 0 1015.3 1015.3 0.0
04/07:00am 12.9 13.3 11.1 89 0.9 CALM 0 0 0 0 1014.9 1014.9 0.0
04/06:30am 12.2 12.4 10.4 89 0.9 CALM 0 0 0 0 1014.5 1014.5 0.0
04/06:00am 13.2 12.3 11.3 88 1.0 WSW 7 11 4 6 1014.2 1014.2 0.0
04/05:30am 13.4 12.2 11.5 88 1.0 WSW 9 13 5 7 1013.8 1013.8 0.0
04/05:00am 12.6 10.5 11.0 90 0.8 SW 13 13 7 7 1013.6 1013.6 0.0
04/04:30am 13.6 11.9 11.3 86 1.2 WNW 11 13 6 7 1013.2 1013.2 0.0
04/04:00am 13.4 12.4 12.3 93 0.6 W 9 13 5 7 1012.8 1012.8 0.0
04/03:30am 13.3 13.9 11.9 91 0.7 CALM 0 0 0 0 1012.6 1012.6 0.0
04/03:00am 12.9 12.6 11.3 90 0.8 N 4 7 2 4 1012.6 1012.6 0.0
04/02:30am 14.3 13.2 12.0 86 1.2 W 9 11 5 6 1012.4 1012.4 0.0
04/02:00am 13.1 13.6 11.5 90 0.8 CALM 0 6 0 3 1012.6 1012.6 0.0
04/01:30am 14.7 13.7 12.4 86 1.3 W 9 11 5 6 1012.3 1012.3 0.0
04/01:00am 14.1 13.6 12.1 88 1.1 WSW 6 7 3 4 1012.2 1012.2 0.0
04/12:30am 14.4 14.0 13.0 91 0.8 WSW 7 11 4 6 1012.1 1012.1 0.0
04/12:00am 14.6 14.3 12.8 89 1.0 W 6 7 3 4 1012.0 1012.0 0.0
 
Date/Time
EST
Temp
°C
App
Temp
°C
Dew
Point
Rel
Hum
%
Delta-T
°C
Wind Press
QNH
hPa
Press
MSL
hPa
Rain
since 9 am
mm
Dir
 
Spd
km/h
Gust
km/h
Spd
kts
Gust
kts
03/11:30pm 15.0 14.6 12.9 87 1.2 W 7 11 4 6 1011.7 1011.7 0.0
03/11:00pm 15.2 14.9 13.2 88 1.1 WSW 7 9 4 5 1011.5 1011.5 0.0
03/10:30pm 14.3 15.1 12.5 89 1.0 CALM 0 0 0 0 1011.5 1011.5 0.0
03/10:00pm 14.7 15.5 12.7 88 1.1 CALM 0 0 0 0 1011.5 1011.5 0.0
03/09:30pm 16.2 17.2 13.3 83 1.6 CALM 0 0 0 0 1011.2 1011.2 0.0
03/09:00pm 16.9 16.5 13.0 78 2.2 NW 7 7 4 4 1011.4 1011.4 0.0
03/08:30pm 16.2 17.2 13.3 83 1.6 CALM 0 0 0 0 1011.5 1011.5 0.0
03/08:00pm 18.2 17.3 12.6 70 3.1 NNW 9 11 5 6 1011.1 1011.1 0.0
03/07:30pm 16.8 16.7 13.3 80 2.0 NNW 6 9 3 5 1010.8 1010.8 0.0
03/07:00pm 19.0 18.8 14.7 76 2.5 NW 9 11 5 6 1010.7 1010.7 0.0
03/06:30pm 17.6 17.9 15.0 85 1.5 NNE 7 9 4 5 1010.1 1010.1 0.0
03/06:00pm 18.2 17.9 14.5 79 2.1 NE 9 9 5 5 1009.6 1009.6 0.0
03/05:30pm 20.1 20.4 14.9 72 3.0 E 7 9 4 5 1009.2 1009.2 0.0
03/05:00pm 21.7 21.5 14.6 64 4.2 ENE 9 13 5 7 1009.1 1009.1 0.0
03/04:30pm 23.0 22.1 14.8 60 4.9 ENE 13 17 7 9 1008.6 1008.6 0.0
03/04:00pm 23.9 22.6 14.9 57 5.4 ENE 15 19 8 10 1008.4 1008.4 0.0
03/03:30pm 23.7 22.2 15.2 59 5.1 E 17 24 9 13 1008.3 1008.3 0.0
03/03:00pm 24.0 22.8 15.0 57 5.4 E 15 20 8 11 1008.4 1008.4 0.0
03/02:30pm 24.9 22.9 15.0 54 5.9 E 19 32 10 17 1008.3 1008.3 0.0
03/02:00pm 26.7 26.0 12.0 40 8.5 SE 7 13 4 7 1008.5 1008.5 0.0
03/01:30pm 26.3 25.3 12.4 42 8.0 NNW 9 19 5 10 1008.7 1008.7 0.0
03/01:00pm 25.8 25.5 13.3 46 7.3 WSW 7 13 4 7 1009.2 1009.2 0.0
03/12:30pm 25.4 24.1 12.6 45 7.4 WNW 11 20 6 11 1009.9 1009.9 0.0
03/12:00pm 25.3 24.2 13.2 47 7.1 NW 11 19 6 10 1010.4 1010.4 0.0
03/11:30am 24.7 23.3 13.3 49 6.6 WNW 13 19 7 10 1010.9 1010.9 0.0
03/11:00am 24.1 23.0 13.0 50 6.4 SW 11 15 6 8 1011.3 1011.3 0.0
03/10:30am 23.6 22.7 13.8 54 5.7 WSW 11 15 6 8 1011.9 1011.9 0.0
03/10:00am 22.7 22.1 13.5 56 5.3 WSW 9 17 5 9 1012.3 1012.3 0.0
03/09:30am 21.9 22.0 14.5 63 4.3 SW 7 9 4 5 1012.6 1012.6 0.0
03/09:00am 20.1 19.2 13.6 66 3.7 W 11 15 6 8 1013.0 1013.0 0.0
03/08:30am 18.8 18.0 13.9 73 2.8 WSW 11 13 6 7 1013.0 1013.0 0.0
03/08:00am 17.5 16.6 13.8 79 2.1 WSW 11 15 6 8 1013.1 1013.1 0.0
03/07:30am 16.3 15.8 13.8 85 1.4 WSW 9 13 5 7 1013.0 1013.0 0.0
03/07:00am 15.1 14.8 13.3 89 1.0 WNW 7 7 4 4 1013.0 1013.0 0.0
03/06:30am 15.2 16.1 12.9 86 1.3 CALM 0 0 0 0 1012.9 1012.9 0.0
03/06:00am 15.2 15.7 12.7 85 1.4 SSE 2 6 1 3 1012.7 1012.7 0.0
03/05:30am 15.3 14.6 13.2 87 1.2 SSW 9 9 5 5 1012.5 1012.5 0.0
03/05:00am 14.4 14.1 13.3 93 0.6 NNW 7 9 4 5 1012.0 1012.0 0.0
03/04:30am 14.6 13.6 13.3 92 0.7 NNW 11 13 6 7 1011.8 1011.8 0.0
03/04:00am 15.2 15.2 13.7 91 0.8 NNW 6 7 3 4 1011.7 1011.7 0.0
03/03:30am 16.3 16.7 14.7 90 0.9 N 6 9 3 5 1011.5 1011.5 0.0
03/03:00am 17.0 16.8 14.8 87 1.3 WSW 9 13 5 7 1011.2 1011.2 0.0
03/02:30am 17.3 17.4 15.5 89 1.1 WSW 9 13 5 7 1011.2 1011.2 0.0
03/02:00am 17.7 18.0 15.9 89 1.1 WSW 9 11 5 6 1011.6 1011.6 0.0
03/01:30am 18.2 18.3 16.4 89 1.1 WSW 11 13 6 7 1011.9 1011.9 0.0
03/01:06am 18.3 18.6 16.1 87 1.3 W 9 11 5 6 1012.2 1012.2 0.0
03/01:00am 18.6 18.9 16.0 85 1.5 W 9 11 5 6 1012.3 1012.3 0.0
03/12:30am 18.5 19.0 16.5 88 1.2 WNW 9 13 5 7 1012.8 1012.8 0.0
03/12:25am 18.4 18.9 16.6 89 1.1 W 9 11 5 6 1012.8 1012.8 0.0
03/12:11am 18.4 18.6 16.7 90 1.0 W 11 15 6 8 1012.9 1012.9 0.0
03/12:00am 18.3 18.6 17.0 92 0.8 WSW 11 13 6 7 1012.9 1012.9 0.0
 
Date/Time
EST
Temp
°C
App
Temp
°C
Dew
Point
Rel
Hum
%
Delta-T
°C
Wind Press
QNH
hPa
Press
MSL
hPa
Rain
since 9 am
mm
Dir
 
Spd
km/h
Gust
km/h
Spd
kts
Gust
kts
02/11:37pm 18.2 18.1 16.9 92 0.8 WSW 13 15 7 8 1013.3 1013.3 0.0
02/11:30pm 18.2 18.5 16.9 92 0.8 WSW 11 15 6 8 1013.4 1013.4 0.0
02/11:00pm 18.3 19.4 17.0 92 0.8 W 7 9 4 5 1013.6 1013.6 0.0
02/10:30pm 17.9 18.5 16.8 93 0.7 N 9 11 5 6 1013.7 1013.7 0.0
02/10:00pm 18.5 20.8 16.7 89 1.1 CALM 0 0 0 0 1013.8 1013.8 0.0
02/09:30pm 18.6 19.5 16.6 88 1.2 W 7 9 4 5 1014.1 1014.1 0.0
02/09:00pm 19.2 19.0 16.6 85 1.6 WSW 13 17 7 9 1014.3 1014.3 0.0
02/08:30pm 18.5 20.6 16.3 87 1.3 CALM 0 0 0 0 1013.5 1013.5 0.0
02/08:00pm 18.8 20.8 15.9 83 1.7 CALM 0 0 0 0 1013.9 1013.9 0.0
02/07:30pm 20.1 21.2 15.7 76 2.6 W 4 7 2 4 1014.6 1014.6 0.0
02/07:00pm 20.5 21.3 15.9 75 2.7 N 6 9 3 5 1014.4 1014.4 0.0
02/06:30pm 20.1 20.4 15.9 77 2.5 NE 9 13 5 7 1013.9 1013.9 0.0
02/06:00pm 19.5 19.6 16.5 83 1.8 NE 11 13 6 7 1013.9 1013.9 0.0
02/05:30pm 19.7 20.4 17.1 85 1.6 NE 9 11 5 6 1013.5 1013.5 0.0
02/05:00pm 20.8 21.2 17.2 80 2.2 ENE 11 15 6 8 1013.2 1013.2 0.0
02/04:30pm 21.5 21.8 16.9 75 2.8 ENE 11 13 6 7 1013.1 1013.1 0.0
02/04:00pm 22.1 21.9 16.6 71 3.3 ENE 13 17 7 9 1013.1 1013.1 0.0
02/03:30pm 22.7 21.9 16.0 66 4.0 ENE 15 19 8 10 1012.9 1012.9 0.0
02/03:00pm 23.4 23.0 16.2 64 4.4 ENE 13 20 7 11 1012.9 1012.9 0.0
02/02:30pm 23.9 22.4 15.4 59 5.1 E 17 26 9 14 1012.8 1012.8 0.0
02/02:00pm 24.4 22.9 15.3 57 5.5 ENE 17 26 9 14 1012.9 1012.9 0.0
02/01:30pm 24.3 22.5 15.5 58 5.3 E 19 24 10 13 1013.1 1013.1 0.0
02/01:00pm 24.4 23.5 15.9 59 5.2 E 15 22 8 12 1013.6 1013.6 0.0
02/12:30pm 24.1 23.3 15.1 57 5.4 E 13 20 7 11 1014.3 1014.3 0.0
02/12:00pm 24.3 24.1 15.8 59 5.1 ENE 11 19 6 10 1015.1 1015.1 0.0
02/11:30am 23.3 22.5 15.1 60 4.9 E 13 20 7 11 1015.4 1015.4 0.0
02/11:00am 23.1 22.1 14.7 59 5.0 ENE 13 17 7 9 1016.1 1016.1 0.0
02/10:30am 22.5 22.8 14.6 61 4.7 NE 6 11 3 6 1016.8 1016.8 0.0
02/10:00am 20.6 20.7 14.5 68 3.6 SW 7 11 4 6 1017.5 1017.5 0.0
02/09:30am 19.2 18.9 14.5 74 2.7 WSW 9 13 5 7 1017.8 1017.8 0.0
02/09:00am 18.4 18.4 15.1 81 1.9 WSW 9 11 5 6 1017.8 1017.8 5.8
02/08:30am 16.7 16.5 14.7 88 1.2 W 9 9 5 5 1017.9 1017.9 5.8
02/08:00am 15.0 14.6 14.2 95 0.5 WSW 9 11 5 6 1017.9 1017.9 5.8
02/07:30am 13.7 14.8 13.5 99 0.1 CALM 0 0 0 0 1017.9 1017.9 5.8
02/07:00am 12.1 12.7 11.9 99 0.1 CALM 0 0 0 0 1017.6 1017.6 5.8
02/06:30am 11.4 11.8 11.2 99 0.1 CALM 0 0 0 0 1017.5 1017.5 5.6
02/06:00am 11.2 11.5 11.0 99 0.1 CALM 0 0 0 0 1017.1 1017.1 5.6
02/05:30am 11.5 11.9 11.3 99 0.1 CALM 0 0 0 0 1016.8 1016.8 5.6
02/05:00am 11.3 10.5 11.1 99 0.1 ESE 6 7 3 4 1016.5 1016.5 5.6
02/04:54am 10.7 9.8 10.5 99 0.1 ESE 6 7 3 4 1016.4 1016.4 5.6
02/04:30am 10.0 8.8 9.7 98 0.2 SSW 6 9 3 5 1016.1 1016.1 5.6
02/04:01am 11.1 11.4 10.8 98 0.2 CALM 0 0 0 0 1015.9 1015.9 5.6
02/04:00am 11.5 11.9 11.3 99 0.1 CALM 0 0 0 0 1015.8 1015.8 5.6
02/03:30am 12.1 12.2 11.6 97 0.3 SSW 2 6 1 3 1015.5 1015.5 5.6
02/03:29am 12.1 12.2 11.6 97 0.3 SSW 2 6 1 3 1015.5 1015.5 5.6
02/03:16am 12.3 12.9 12.0 98 0.2 CALM 0 0 0 0 1015.3 1015.3 5.6
02/03:00am 12.8 13.1 12.2 96 0.3 SSW 2 7 1 4 1015.3 1015.3 5.6
02/02:30am 14.1 13.5 13.6 97 0.3 WSW 9 9 5 5 1015.2 1015.2 5.6
02/02:00am 14.1 14.2 12.8 92 0.7 WSW 4 9 2 5 1015.5 1015.5 5.6
02/01:30am 14.8 14.8 14.3 97 0.3 W 7 11 4 6 1015.6 1015.6 5.6
02/01:00am 15.0 14.7 14.4 96 0.3 W 9 11 5 6 1015.5 1015.5 5.6
02/12:30am 14.7 15.9 13.7 94 0.6 CALM 0 0 0 0 1015.7 1015.7 5.6
02/12:00am 16.5 16.0 14.9 90 0.9 W 11 13 6 7 1015.7 1015.7 5.6
 
Date/Time
EST
Temp
°C
App
Temp
°C
Dew
Point
Rel
Hum
%
Delta-T
°C
Wind Press
QNH
hPa
Press
MSL
hPa
Rain
since 9 am
mm
Dir
 
Spd
km/h
Gust
km/h
Spd
kts
Gust
kts
01/11:30pm 16.6 15.8 15.0 90 0.9 W 13 15 7 8 1015.6 1015.6 5.6
01/11:00pm 16.1 16.6 15.6 97 0.3 W 7 9 4 5 1015.6 1015.6 5.4
01/10:30pm 16.0 16.3 14.9 93 0.6 WNW 7 7 4 4 1015.5 1015.5 5.4
01/10:00pm 16.7 16.7 15.1 90 0.9 WNW 9 11 5 6 1015.5 1015.5 5.4
01/09:30pm 16.0 16.7 15.5 97 0.3 NNW 6 9 3 5 1015.5 1015.5 5.4
01/09:00pm 16.5 18.6 16.2 98 0.2 CALM 0 0 0 0 1015.4 1015.4 5.4
01/08:30pm 16.6 18.6 16.0 96 0.4 CALM 0 0 0 0 1015.1 1015.1 5.4
01/08:18pm 16.9 19.0 16.3 96 0.4 CALM 0 2 0 1 1014.9 1014.9 5.4
01/08:00pm 16.6 17.1 15.5 93 0.6 NE 7 9 4 5 1015.0 1015.0 5.4
01/07:59pm 16.6 17.1 15.5 93 0.6 NE 7 9 4 5 1015.0 1015.0 5.4
01/07:30pm 18.5 19.7 17.3 93 0.7 W 7 9 4 5 1014.6 1014.6 5.4
01/07:00pm 18.0 18.7 17.0 94 0.6 NW 9 11 5 6 1014.6 1014.6 5.4
01/06:30pm 18.8 20.3 17.6 93 0.7 WSW 6 7 3 4 1014.6 1014.6 5.4
01/06:00pm 19.3 20.1 17.4 89 1.2 WNW 9 11 5 6 1014.3 1014.3 5.4
01/05:30pm 19.0 21.7 17.8 93 0.7 CALM 0 0 0 0 1014.4 1014.4 5.4
01/05:00pm 19.0 21.7 17.8 93 0.7 CALM 0 0 0 0 1014.3 1014.3 5.4
01/04:30pm 19.7 21.1 17.8 89 1.2 W 7 9 4 5 1014.3 1014.3 5.4
01/04:00pm 20.2 22.0 17.4 84 1.7 NW 4 7 2 4 1014.2 1014.2 5.4
01/03:30pm 20.6 21.5 17.6 83 1.8 NW 9 11 5 6 1013.7 1013.7 5.4
01/03:00pm 20.1 20.6 17.5 85 1.6 NNW 11 15 6 8 1013.8 1013.8 5.4
01/02:30pm 19.8 20.6 18.1 90 1.1 NW 11 15 6 8 1013.7 1013.7 5.4
01/02:00pm 19.6 19.7 18.4 93 0.7 N 15 20 8 11 1014.1 1014.1 5.4
01/01:30pm 19.7 20.4 18.9 95 0.5 NNW 13 17 7 9 1014.3 1014.3 4.8
01/01:00pm 19.4 20.3 19.2 99 0.1 N 13 19 7 10 1014.0 1014.0 4.6
01/12:30pm 19.6 21.3 19.4 99 0.1 NNW 9 13 5 7 1015.2 1015.2 4.0
01/12:00pm 19.3 21.2 18.6 96 0.4 NNW 6 9 3 5 1016.1 1016.1 3.6

Other Formats:

Comma delimited format used in spreadsheet applications
http://www.bom.gov.au/fwo/IDN60801/IDN60801.95784.axf

JavaScript Object Notation format (JSON) in row-major order
http://www.bom.gov.au/fwo/IDN60801/IDN60801.95784.json